sensor_id;sensor_type;location;lat;lon;timestamp;P1;durP1;ratioP1;P2;durP2;ratioP2
46090;SDS011;31826;53.572;10.170;2022-12-18T00:01:20;28.00;;;10.50;;
46090;SDS011;31826;53.572;10.170;2022-12-18T00:03:47;22.70;;;10.45;;
46090;SDS011;31826;53.572;10.170;2022-12-18T00:06:14;22.70;;;10.13;;
46090;SDS011;31826;53.572;10.170;2022-12-18T00:08:40;24.00;;;11.38;;
46090;SDS011;31826;53.572;10.170;2022-12-18T00:11:07;23.15;;;10.10;;
46090;SDS011;31826;53.572;10.170;2022-12-18T00:13:35;21.02;;;9.98;;
46090;SDS011;31826;53.572;10.170;2022-12-18T00:16:02;23.20;;;10.40;;
46090;SDS011;31826;53.572;10.170;2022-12-18T00:18:29;23.47;;;9.60;;
46090;SDS011;31826;53.572;10.170;2022-12-18T00:20:58;24.83;;;10.02;;
46090;SDS011;31826;53.572;10.170;2022-12-18T00:23:28;21.08;;;10.07;;
46090;SDS011;31826;53.572;10.170;2022-12-18T00:25:54;22.58;;;9.50;;
46090;SDS011;31826;53.572;10.170;2022-12-18T00:28:23;19.83;;;9.05;;
46090;SDS011;31826;53.572;10.170;2022-12-18T00:30:49;22.60;;;9.63;;
46090;SDS011;31826;53.572;10.170;2022-12-18T00:33:16;21.27;;;10.75;;
46090;SDS011;31826;53.572;10.170;2022-12-18T00:35:42;19.85;;;9.43;;
46090;SDS011;31826;53.572;10.170;2022-12-18T00:38:08;21.75;;;9.70;;
46090;SDS011;31826;53.572;10.170;2022-12-18T00:40:33;20.45;;;9.65;;
46090;SDS011;31826;53.572;10.170;2022-12-18T00:42:59;19.83;;;10.07;;
46090;SDS011;31826;53.572;10.170;2022-12-18T00:45:25;22.58;;;9.05;;
46090;SDS011;31826;53.572;10.170;2022-12-18T00:47:53;18.80;;;9.13;;
46090;SDS011;31826;53.572;10.170;2022-12-18T00:50:20;19.73;;;8.30;;
46090;SDS011;31826;53.572;10.170;2022-12-18T00:52:46;23.20;;;9.52;;
46090;SDS011;31826;53.572;10.170;2022-12-18T00:55:13;23.27;;;9.55;;
46090;SDS011;31826;53.572;10.170;2022-12-18T00:57:39;21.58;;;9.45;;
46090;SDS011;31826;53.572;10.170;2022-12-18T01:00:06;23.58;;;9.38;;
46090;SDS011;31826;53.572;10.170;2022-12-18T01:02:33;21.75;;;9.30;;
46090;SDS011;31826;53.572;10.170;2022-12-18T01:04:58;17.92;;;8.73;;
46090;SDS011;31826;53.572;10.170;2022-12-18T01:07:24;20.35;;;8.75;;
46090;SDS011;31826;53.572;10.170;2022-12-18T01:09:50;18.90;;;8.38;;
46090;SDS011;31826;53.572;10.170;2022-12-18T01:12:15;19.88;;;8.77;;
46090;SDS011;31826;53.572;10.170;2022-12-18T01:14:41;19.52;;;8.13;;
46090;SDS011;31826;53.572;10.170;2022-12-18T01:17:07;18.40;;;8.60;;
46090;SDS011;31826;53.572;10.170;2022-12-18T01:19:33;19.67;;;8.30;;
46090;SDS011;31826;53.572;10.170;2022-12-18T01:21:58;22.20;;;8.27;;
46090;SDS011;31826;53.572;10.170;2022-12-18T01:24:24;18.10;;;8.38;;
46090;SDS011;31826;53.572;10.170;2022-12-18T01:26:50;19.73;;;8.38;;
46090;SDS011;31826;53.572;10.170;2022-12-18T01:29:16;23.53;;;9.03;;
46090;SDS011;31826;53.572;10.170;2022-12-18T01:31:42;22.30;;;8.90;;
46090;SDS011;31826;53.572;10.170;2022-12-18T01:34:08;20.43;;;8.87;;
46090;SDS011;31826;53.572;10.170;2022-12-18T01:36:35;18.73;;;8.32;;
46090;SDS011;31826;53.572;10.170;2022-12-18T01:39:12;19.42;;;8.30;;
46090;SDS011;31826;53.572;10.170;2022-12-18T01:41:39;21.30;;;8.57;;
46090;SDS011;31826;53.572;10.170;2022-12-18T01:50:24;18.63;;;8.85;;
46090;SDS011;31826;53.572;10.170;2022-12-18T01:55:48;16.42;;;8.18;;
46090;SDS011;31826;53.572;10.170;2022-12-18T01:58:18;19.52;;;8.63;;
46090;SDS011;31826;53.572;10.170;2022-12-18T02:00:46;16.67;;;7.35;;
46090;SDS011;31826;53.572;10.170;2022-12-18T02:03:12;17.52;;;8.27;;
46090;SDS011;31826;53.572;10.170;2022-12-18T02:05:49;20.35;;;8.15;;
46090;SDS011;31826;53.572;10.170;2022-12-18T02:27:46;20.27;;;8.13;;
46090;SDS011;31826;53.572;10.170;2022-12-18T02:30:14;18.57;;;7.93;;
46090;SDS011;31826;53.572;10.170;2022-12-18T02:32:42;16.17;;;7.10;;
46090;SDS011;31826;53.572;10.170;2022-12-18T02:35:13;18.38;;;7.95;;
46090;SDS011;31826;53.572;10.170;2022-12-18T02:37:47;19.38;;;7.97;;
46090;SDS011;31826;53.572;10.170;2022-12-18T02:40:14;17.20;;;7.30;;
46090;SDS011;31826;53.572;10.170;2022-12-18T02:42:41;16.48;;;7.18;;
46090;SDS011;31826;53.572;10.170;2022-12-18T02:45:07;17.50;;;7.80;;
46090;SDS011;31826;53.572;10.170;2022-12-18T02:47:35;17.92;;;7.50;;
46090;SDS011;31826;53.572;10.170;2022-12-18T03:08:51;17.02;;;7.45;;
46090;SDS011;31826;53.572;10.170;2022-12-18T03:11:23;18.33;;;7.35;;
46090;SDS011;31826;53.572;10.170;2022-12-18T03:14:10;15.50;;;7.47;;
46090;SDS011;31826;53.572;10.170;2022-12-18T03:16:40;17.38;;;7.53;;
46090;SDS011;31826;53.572;10.170;2022-12-18T03:19:08;17.35;;;7.18;;
46090;SDS011;31826;53.572;10.170;2022-12-18T03:21:45;15.43;;;6.85;;
46090;SDS011;31826;53.572;10.170;2022-12-18T03:24:12;17.38;;;8.32;;
46090;SDS011;31826;53.572;10.170;2022-12-18T03:26:40;16.35;;;7.32;;
46090;SDS011;31826;53.572;10.170;2022-12-18T03:29:12;17.88;;;7.80;;
46090;SDS011;31826;53.572;10.170;2022-12-18T03:32:19;16.50;;;7.40;;
46090;SDS011;31826;53.572;10.170;2022-12-18T03:34:50;17.08;;;7.55;;
46090;SDS011;31826;53.572;10.170;2022-12-18T03:37:18;18.92;;;7.50;;
46090;SDS011;31826;53.572;10.170;2022-12-18T03:39:44;17.83;;;7.05;;
46090;SDS011;31826;53.572;10.170;2022-12-18T03:45:02;19.38;;;7.68;;
46090;SDS011;31826;53.572;10.170;2022-12-18T03:50:16;16.35;;;7.38;;
46090;SDS011;31826;53.572;10.170;2022-12-18T03:55:43;15.50;;;7.32;;
46090;SDS011;31826;53.572;10.170;2022-12-18T03:58:10;17.03;;;7.37;;
46090;SDS011;31826;53.572;10.170;2022-12-18T04:00:39;18.05;;;7.55;;
46090;SDS011;31826;53.572;10.170;2022-12-18T04:03:06;20.17;;;7.53;;
46090;SDS011;31826;53.572;10.170;2022-12-18T04:05:33;18.27;;;7.45;;
46090;SDS011;31826;53.572;10.170;2022-12-18T04:08:02;16.25;;;6.93;;
46090;SDS011;31826;53.572;10.170;2022-12-18T04:10:29;20.17;;;7.28;;
46090;SDS011;31826;53.572;10.170;2022-12-18T04:12:55;16.87;;;7.33;;
46090;SDS011;31826;53.572;10.170;2022-12-18T04:15:22;18.10;;;7.73;;
46090;SDS011;31826;53.572;10.170;2022-12-18T04:17:48;17.08;;;7.18;;
46090;SDS011;31826;53.572;10.170;2022-12-18T04:20:15;19.67;;;8.23;;
46090;SDS011;31826;53.572;10.170;2022-12-18T04:22:40;16.50;;;6.95;;
46090;SDS011;31826;53.572;10.170;2022-12-18T04:25:06;23.17;;;8.27;;
46090;SDS011;31826;53.572;10.170;2022-12-18T04:27:32;17.27;;;7.05;;
46090;SDS011;31826;53.572;10.170;2022-12-18T04:29:58;19.20;;;7.18;;
46090;SDS011;31826;53.572;10.170;2022-12-18T04:32:24;16.35;;;7.78;;
46090;SDS011;31826;53.572;10.170;2022-12-18T04:34:50;18.08;;;7.63;;
46090;SDS011;31826;53.572;10.170;2022-12-18T04:37:15;16.63;;;7.43;;
46090;SDS011;31826;53.572;10.170;2022-12-18T04:39:41;15.57;;;7.95;;
46090;SDS011;31826;53.572;10.170;2022-12-18T04:42:07;18.55;;;7.65;;
46090;SDS011;31826;53.572;10.170;2022-12-18T04:44:32;17.52;;;8.00;;
46090;SDS011;31826;53.572;10.170;2022-12-18T04:46:58;17.15;;;7.10;;
46090;SDS011;31826;53.572;10.170;2022-12-18T04:49:24;18.45;;;8.10;;
46090;SDS011;31826;53.572;10.170;2022-12-18T04:51:49;18.02;;;7.30;;
46090;SDS011;31826;53.572;10.170;2022-12-18T04:54:15;20.40;;;8.25;;
46090;SDS011;31826;53.572;10.170;2022-12-18T04:56:41;17.50;;;7.90;;
46090;SDS011;31826;53.572;10.170;2022-12-18T04:59:06;18.98;;;8.05;;
46090;SDS011;31826;53.572;10.170;2022-12-18T05:01:32;17.63;;;8.15;;
46090;SDS011;31826;53.572;10.170;2022-12-18T05:03:58;16.92;;;7.80;;
46090;SDS011;31826;53.572;10.170;2022-12-18T05:06:23;20.88;;;7.75;;
46090;SDS011;31826;53.572;10.170;2022-12-18T05:08:49;19.95;;;7.82;;
46090;SDS011;31826;53.572;10.170;2022-12-18T05:11:15;21.48;;;8.25;;
46090;SDS011;31826;53.572;10.170;2022-12-18T05:13:41;18.67;;;8.63;;
46090;SDS011;31826;53.572;10.170;2022-12-18T05:16:08;20.10;;;8.43;;
46090;SDS011;31826;53.572;10.170;2022-12-18T05:18:34;23.95;;;8.95;;
46090;SDS011;31826;53.572;10.170;2022-12-18T05:20:59;19.45;;;8.38;;
46090;SDS011;31826;53.572;10.170;2022-12-18T05:23:26;17.95;;;8.32;;
46090;SDS011;31826;53.572;10.170;2022-12-18T05:25:53;21.55;;;9.07;;
46090;SDS011;31826;53.572;10.170;2022-12-18T05:28:20;18.70;;;8.20;;
46090;SDS011;31826;53.572;10.170;2022-12-18T05:30:50;18.13;;;8.55;;
46090;SDS011;31826;53.572;10.170;2022-12-18T05:33:17;19.92;;;8.15;;
46090;SDS011;31826;53.572;10.170;2022-12-18T05:35:43;19.38;;;8.38;;
46090;SDS011;31826;53.572;10.170;2022-12-18T05:38:09;22.98;;;9.15;;
46090;SDS011;31826;53.572;10.170;2022-12-18T05:40:35;20.83;;;9.00;;
46090;SDS011;31826;53.572;10.170;2022-12-18T05:43:01;19.60;;;9.13;;
46090;SDS011;31826;53.572;10.170;2022-12-18T05:45:27;21.73;;;9.93;;
46090;SDS011;31826;53.572;10.170;2022-12-18T05:47:53;20.23;;;8.38;;
46090;SDS011;31826;53.572;10.170;2022-12-18T05:50:18;20.63;;;9.45;;
46090;SDS011;31826;53.572;10.170;2022-12-18T05:52:44;23.13;;;8.73;;
46090;SDS011;31826;53.572;10.170;2022-12-18T05:55:10;22.02;;;9.02;;
46090;SDS011;31826;53.572;10.170;2022-12-18T05:57:35;19.05;;;8.38;;
46090;SDS011;31826;53.572;10.170;2022-12-18T06:00:01;19.23;;;8.45;;
46090;SDS011;31826;53.572;10.170;2022-12-18T06:02:28;21.85;;;8.75;;
46090;SDS011;31826;53.572;10.170;2022-12-18T06:04:53;21.42;;;9.23;;
46090;SDS011;31826;53.572;10.170;2022-12-18T06:07:19;18.65;;;7.90;;
46090;SDS011;31826;53.572;10.170;2022-12-18T06:09:45;19.75;;;8.75;;
46090;SDS011;31826;53.572;10.170;2022-12-18T06:12:11;19.23;;;8.55;;
46090;SDS011;31826;53.572;10.170;2022-12-18T06:14:36;20.77;;;8.50;;
46090;SDS011;31826;53.572;10.170;2022-12-18T06:17:02;18.70;;;9.05;;
46090;SDS011;31826;53.572;10.170;2022-12-18T06:19:28;21.90;;;9.30;;
46090;SDS011;31826;53.572;10.170;2022-12-18T06:21:53;20.75;;;8.85;;
46090;SDS011;31826;53.572;10.170;2022-12-18T06:24:19;25.75;;;9.38;;
46090;SDS011;31826;53.572;10.170;2022-12-18T06:26:45;21.40;;;8.60;;
46090;SDS011;31826;53.572;10.170;2022-12-18T06:29:10;19.30;;;8.73;;
46090;SDS011;31826;53.572;10.170;2022-12-18T06:31:36;24.27;;;9.10;;
46090;SDS011;31826;53.572;10.170;2022-12-18T06:34:02;20.65;;;9.02;;
46090;SDS011;31826;53.572;10.170;2022-12-18T06:36:29;18.88;;;8.73;;
46090;SDS011;31826;53.572;10.170;2022-12-18T06:38:55;21.33;;;9.17;;
46090;SDS011;31826;53.572;10.170;2022-12-18T06:41:22;23.67;;;8.88;;
46090;SDS011;31826;53.572;10.170;2022-12-18T06:43:48;22.13;;;9.77;;
46090;SDS011;31826;53.572;10.170;2022-12-18T06:46:14;20.73;;;8.90;;
46090;SDS011;31826;53.572;10.170;2022-12-18T06:48:40;24.05;;;9.80;;
46090;SDS011;31826;53.572;10.170;2022-12-18T06:51:06;20.25;;;9.13;;
46090;SDS011;31826;53.572;10.170;2022-12-18T06:53:32;21.00;;;9.47;;
46090;SDS011;31826;53.572;10.170;2022-12-18T06:56:05;20.42;;;9.40;;
46090;SDS011;31826;53.572;10.170;2022-12-18T06:58:32;23.37;;;9.07;;
46090;SDS011;31826;53.572;10.170;2022-12-18T07:01:02;24.17;;;9.95;;
46090;SDS011;31826;53.572;10.170;2022-12-18T07:03:29;22.65;;;8.93;;
46090;SDS011;31826;53.572;10.170;2022-12-18T07:05:55;19.92;;;8.82;;
46090;SDS011;31826;53.572;10.170;2022-12-18T07:08:21;21.45;;;9.27;;
46090;SDS011;31826;53.572;10.170;2022-12-18T07:10:47;21.92;;;9.43;;
46090;SDS011;31826;53.572;10.170;2022-12-18T07:13:14;23.27;;;9.70;;
46090;SDS011;31826;53.572;10.170;2022-12-18T07:15:40;21.02;;;9.63;;
46090;SDS011;31826;53.572;10.170;2022-12-18T07:18:06;22.83;;;9.27;;
46090;SDS011;31826;53.572;10.170;2022-12-18T07:20:32;17.95;;;7.75;;
46090;SDS011;31826;53.572;10.170;2022-12-18T07:22:58;22.13;;;9.43;;
46090;SDS011;31826;53.572;10.170;2022-12-18T07:25:23;21.92;;;9.82;;
46090;SDS011;31826;53.572;10.170;2022-12-18T07:27:49;21.65;;;9.13;;
46090;SDS011;31826;53.572;10.170;2022-12-18T07:30:15;26.45;;;9.38;;
46090;SDS011;31826;53.572;10.170;2022-12-18T07:32:41;22.67;;;9.02;;
46090;SDS011;31826;53.572;10.170;2022-12-18T07:35:06;23.75;;;9.35;;
46090;SDS011;31826;53.572;10.170;2022-12-18T07:37:32;23.60;;;9.48;;
46090;SDS011;31826;53.572;10.170;2022-12-18T07:39:58;23.08;;;9.70;;
46090;SDS011;31826;53.572;10.170;2022-12-18T07:42:23;21.80;;;9.00;;
46090;SDS011;31826;53.572;10.170;2022-12-18T07:44:55;22.77;;;9.55;;
46090;SDS011;31826;53.572;10.170;2022-12-18T07:47:21;19.23;;;9.65;;
46090;SDS011;31826;53.572;10.170;2022-12-18T07:49:47;22.07;;;9.00;;
46090;SDS011;31826;53.572;10.170;2022-12-18T07:52:12;22.57;;;9.20;;
46090;SDS011;31826;53.572;10.170;2022-12-18T07:54:38;24.00;;;9.23;;
46090;SDS011;31826;53.572;10.170;2022-12-18T07:57:05;18.30;;;8.60;;
46090;SDS011;31826;53.572;10.170;2022-12-18T07:59:31;20.35;;;9.25;;
46090;SDS011;31826;53.572;10.170;2022-12-18T08:01:57;20.98;;;9.20;;
46090;SDS011;31826;53.572;10.170;2022-12-18T08:04:23;22.97;;;9.50;;
46090;SDS011;31826;53.572;10.170;2022-12-18T08:06:49;21.60;;;9.15;;
46090;SDS011;31826;53.572;10.170;2022-12-18T08:09:15;22.33;;;8.90;;
46090;SDS011;31826;53.572;10.170;2022-12-18T08:11:41;23.17;;;9.33;;
46090;SDS011;31826;53.572;10.170;2022-12-18T08:14:07;23.73;;;9.38;;
46090;SDS011;31826;53.572;10.170;2022-12-18T08:16:33;24.60;;;9.07;;
46090;SDS011;31826;53.572;10.170;2022-12-18T08:18:59;23.20;;;8.80;;
46090;SDS011;31826;53.572;10.170;2022-12-18T08:21:26;21.15;;;9.05;;
46090;SDS011;31826;53.572;10.170;2022-12-18T08:23:54;22.38;;;9.23;;
46090;SDS011;31826;53.572;10.170;2022-12-18T08:26:21;19.42;;;8.95;;
46090;SDS011;31826;53.572;10.170;2022-12-18T08:28:48;17.80;;;8.43;;
46090;SDS011;31826;53.572;10.170;2022-12-18T08:31:15;20.70;;;9.02;;
46090;SDS011;31826;53.572;10.170;2022-12-18T08:33:40;21.65;;;9.38;;
46090;SDS011;31826;53.572;10.170;2022-12-18T08:36:06;21.40;;;8.65;;
46090;SDS011;31826;53.572;10.170;2022-12-18T08:38:34;18.83;;;8.48;;
46090;SDS011;31826;53.572;10.170;2022-12-18T08:41:01;19.25;;;8.25;;
46090;SDS011;31826;53.572;10.170;2022-12-18T08:43:31;20.70;;;8.68;;
46090;SDS011;31826;53.572;10.170;2022-12-18T08:46:16;21.67;;;8.40;;
46090;SDS011;31826;53.572;10.170;2022-12-18T08:48:43;23.58;;;8.82;;
46090;SDS011;31826;53.572;10.170;2022-12-18T08:51:08;19.02;;;8.23;;
46090;SDS011;31826;53.572;10.170;2022-12-18T08:53:35;21.70;;;8.93;;
46090;SDS011;31826;53.572;10.170;2022-12-18T08:56:01;19.65;;;8.88;;
46090;SDS011;31826;53.572;10.170;2022-12-18T08:58:27;21.58;;;9.20;;
46090;SDS011;31826;53.572;10.170;2022-12-18T09:00:53;22.50;;;9.02;;
46090;SDS011;31826;53.572;10.170;2022-12-18T09:03:19;25.60;;;8.40;;
46090;SDS011;31826;53.572;10.170;2022-12-18T09:05:47;19.80;;;8.27;;
46090;SDS011;31826;53.572;10.170;2022-12-18T09:08:13;20.80;;;9.25;;
46090;SDS011;31826;53.572;10.170;2022-12-18T09:10:42;19.20;;;7.93;;
46090;SDS011;31826;53.572;10.170;2022-12-18T09:13:12;25.67;;;8.63;;
46090;SDS011;31826;53.572;10.170;2022-12-18T09:15:46;19.50;;;8.20;;
46090;SDS011;31826;53.572;10.170;2022-12-18T09:18:14;23.58;;;10.32;;
46090;SDS011;31826;53.572;10.170;2022-12-18T09:20:40;18.27;;;7.78;;
46090;SDS011;31826;53.572;10.170;2022-12-18T09:23:06;17.25;;;7.68;;
46090;SDS011;31826;53.572;10.170;2022-12-18T09:25:33;21.90;;;8.93;;
46090;SDS011;31826;53.572;10.170;2022-12-18T09:28:02;22.42;;;8.18;;
46090;SDS011;31826;53.572;10.170;2022-12-18T09:30:30;20.27;;;9.10;;
46090;SDS011;31826;53.572;10.170;2022-12-18T09:32:58;20.23;;;7.82;;
46090;SDS011;31826;53.572;10.170;2022-12-18T09:35:24;21.20;;;7.93;;
46090;SDS011;31826;53.572;10.170;2022-12-18T09:37:50;21.83;;;8.43;;
46090;SDS011;31826;53.572;10.170;2022-12-18T09:40:16;22.55;;;9.20;;
46090;SDS011;31826;53.572;10.170;2022-12-18T09:42:46;19.17;;;8.05;;
46090;SDS011;31826;53.572;10.170;2022-12-18T09:45:18;22.27;;;8.05;;
46090;SDS011;31826;53.572;10.170;2022-12-18T09:47:45;17.60;;;7.63;;
46090;SDS011;31826;53.572;10.170;2022-12-18T09:52:59;19.50;;;8.93;;
46090;SDS011;31826;53.572;10.170;2022-12-18T09:55:35;21.02;;;8.25;;
46090;SDS011;31826;53.572;10.170;2022-12-18T10:00:54;21.42;;;8.60;;
46090;SDS011;31826;53.572;10.170;2022-12-18T10:03:21;26.92;;;10.38;;
46090;SDS011;31826;53.572;10.170;2022-12-18T10:09:08;21.55;;;8.70;;
46090;SDS011;31826;53.572;10.170;2022-12-18T10:14:00;16.33;;;8.13;;
46090;SDS011;31826;53.572;10.170;2022-12-18T10:19:51;18.08;;;7.72;;
46090;SDS011;31826;53.572;10.170;2022-12-18T10:25:25;15.95;;;7.90;;
46090;SDS011;31826;53.572;10.170;2022-12-18T10:28:13;17.92;;;8.80;;
46090;SDS011;31826;53.572;10.170;2022-12-18T10:30:41;18.47;;;7.90;;
46090;SDS011;31826;53.572;10.170;2022-12-18T10:33:15;17.77;;;7.40;;
46090;SDS011;31826;53.572;10.170;2022-12-18T10:35:43;16.20;;;7.68;;
46090;SDS011;31826;53.572;10.170;2022-12-18T10:40:48;19.30;;;8.63;;
46090;SDS011;31826;53.572;10.170;2022-12-18T10:43:14;21.90;;;8.30;;
46090;SDS011;31826;53.572;10.170;2022-12-18T10:45:44;18.73;;;8.25;;
46090;SDS011;31826;53.572;10.170;2022-12-18T10:51:18;21.80;;;8.90;;
46090;SDS011;31826;53.572;10.170;2022-12-18T10:53:53;20.48;;;9.70;;
46090;SDS011;31826;53.572;10.170;2022-12-18T10:58:59;20.15;;;8.35;;
46090;SDS011;31826;53.572;10.170;2022-12-18T11:01:27;20.58;;;8.30;;
46090;SDS011;31826;53.572;10.170;2022-12-18T11:06:22;21.17;;;8.93;;
46090;SDS011;31826;53.572;10.170;2022-12-18T11:11:58;19.90;;;9.02;;
46090;SDS011;31826;53.572;10.170;2022-12-18T11:16:54;19.20;;;9.03;;
46090;SDS011;31826;53.572;10.170;2022-12-18T11:19:24;21.13;;;8.70;;
46090;SDS011;31826;53.572;10.170;2022-12-18T11:21:57;19.23;;;8.50;;
46090;SDS011;31826;53.572;10.170;2022-12-18T11:24:31;21.50;;;8.83;;
46090;SDS011;31826;53.572;10.170;2022-12-18T11:27:03;17.83;;;8.15;;
46090;SDS011;31826;53.572;10.170;2022-12-18T11:34:56;21.13;;;8.43;;
46090;SDS011;31826;53.572;10.170;2022-12-18T11:37:35;21.33;;;8.35;;
46090;SDS011;31826;53.572;10.170;2022-12-18T11:40:06;18.35;;;7.90;;
46090;SDS011;31826;53.572;10.170;2022-12-18T11:42:45;19.42;;;8.60;;
46090;SDS011;31826;53.572;10.170;2022-12-18T11:45:30;19.83;;;8.10;;
46090;SDS011;31826;53.572;10.170;2022-12-18T11:50:55;21.77;;;8.05;;
46090;SDS011;31826;53.572;10.170;2022-12-18T11:53:24;20.37;;;9.00;;
46090;SDS011;31826;53.572;10.170;2022-12-18T12:01:13;21.17;;;8.68;;
46090;SDS011;31826;53.572;10.170;2022-12-18T12:09:23;21.50;;;8.40;;
46090;SDS011;31826;53.572;10.170;2022-12-18T12:25:35;20.98;;;9.05;;
46090;SDS011;31826;53.572;10.170;2022-12-18T12:30:44;20.38;;;8.70;;
46090;SDS011;31826;53.572;10.170;2022-12-18T12:33:37;26.10;;;9.77;;
46090;SDS011;31826;53.572;10.170;2022-12-18T12:36:16;25.27;;;9.95;;
46090;SDS011;31826;53.572;10.170;2022-12-18T12:38:55;24.48;;;10.80;;
46090;SDS011;31826;53.572;10.170;2022-12-18T12:41:25;25.35;;;9.07;;
46090;SDS011;31826;53.572;10.170;2022-12-18T12:44:19;24.50;;;10.40;;
46090;SDS011;31826;53.572;10.170;2022-12-18T12:46:52;25.48;;;10.35;;
46090;SDS011;31826;53.572;10.170;2022-12-18T12:49:21;23.13;;;9.63;;
46090;SDS011;31826;53.572;10.170;2022-12-18T12:52:26;23.50;;;10.15;;
46090;SDS011;31826;53.572;10.170;2022-12-18T12:54:49;25.17;;;10.10;;
46090;SDS011;31826;53.572;10.170;2022-12-18T12:59:58;21.83;;;9.18;;
46090;SDS011;31826;53.572;10.170;2022-12-18T13:02:44;22.93;;;8.97;;
46090;SDS011;31826;53.572;10.170;2022-12-18T13:05:28;18.73;;;8.40;;
46090;SDS011;31826;53.572;10.170;2022-12-18T13:08:04;24.80;;;9.35;;
46090;SDS011;31826;53.572;10.170;2022-12-18T13:10:34;23.42;;;9.05;;
46090;SDS011;31826;53.572;10.170;2022-12-18T13:13:08;20.73;;;9.00;;
46090;SDS011;31826;53.572;10.170;2022-12-18T13:20:48;23.20;;;8.93;;
46090;SDS011;31826;53.572;10.170;2022-12-18T13:25:58;25.45;;;8.88;;
46090;SDS011;31826;53.572;10.170;2022-12-18T13:31:10;21.33;;;8.77;;
46090;SDS011;31826;53.572;10.170;2022-12-18T13:38:47;21.50;;;8.60;;
46090;SDS011;31826;53.572;10.170;2022-12-18T13:41:33;22.25;;;8.95;;
46090;SDS011;31826;53.572;10.170;2022-12-18T13:44:23;23.52;;;9.43;;
46090;SDS011;31826;53.572;10.170;2022-12-18T13:46:55;31.80;;;12.98;;
46090;SDS011;31826;53.572;10.170;2022-12-18T13:49:26;24.38;;;10.85;;
46090;SDS011;31826;53.572;10.170;2022-12-18T13:52:18;27.38;;;10.40;;
46090;SDS011;31826;53.572;10.170;2022-12-18T13:54:59;23.90;;;8.48;;
46090;SDS011;31826;53.572;10.170;2022-12-18T13:57:31;23.93;;;8.87;;
46090;SDS011;31826;53.572;10.170;2022-12-18T14:02:47;25.80;;;9.90;;
46090;SDS011;31826;53.572;10.170;2022-12-18T14:08:00;25.90;;;9.98;;
46090;SDS011;31826;53.572;10.170;2022-12-18T14:10:30;24.17;;;8.90;;
46090;SDS011;31826;53.572;10.170;2022-12-18T14:12:56;26.90;;;10.98;;
46090;SDS011;31826;53.572;10.170;2022-12-18T14:18:18;26.60;;;9.95;;
46090;SDS011;31826;53.572;10.170;2022-12-18T14:20:57;26.27;;;10.85;;
46090;SDS011;31826;53.572;10.170;2022-12-18T14:26:01;27.83;;;11.40;;
46090;SDS011;31826;53.572;10.170;2022-12-18T14:28:28;29.30;;;11.60;;
46090;SDS011;31826;53.572;10.170;2022-12-18T14:30:55;31.20;;;12.23;;
46090;SDS011;31826;53.572;10.170;2022-12-18T14:33:26;25.92;;;10.25;;
46090;SDS011;31826;53.572;10.170;2022-12-18T14:36:05;31.20;;;10.85;;
46090;SDS011;31826;53.572;10.170;2022-12-18T14:43:28;30.55;;;12.60;;
46090;SDS011;31826;53.572;10.170;2022-12-18T14:45:57;29.73;;;11.43;;
46090;SDS011;31826;53.572;10.170;2022-12-18T14:51:06;30.00;;;12.15;;
46090;SDS011;31826;53.572;10.170;2022-12-18T14:53:42;31.83;;;12.50;;
46090;SDS011;31826;53.572;10.170;2022-12-18T14:59:02;30.63;;;12.20;;
46090;SDS011;31826;53.572;10.170;2022-12-18T15:04:03;32.78;;;12.55;;
46090;SDS011;31826;53.572;10.170;2022-12-18T15:06:31;27.85;;;10.82;;
46090;SDS011;31826;53.572;10.170;2022-12-18T15:09:00;35.38;;;13.77;;
46090;SDS011;31826;53.572;10.170;2022-12-18T15:11:54;30.58;;;12.80;;
46090;SDS011;31826;53.572;10.170;2022-12-18T15:14:34;39.50;;;13.93;;
46090;SDS011;31826;53.572;10.170;2022-12-18T15:17:05;33.78;;;13.38;;
46090;SDS011;31826;53.572;10.170;2022-12-18T15:19:43;32.07;;;13.27;;
46090;SDS011;31826;53.572;10.170;2022-12-18T15:24:46;40.10;;;14.60;;
46090;SDS011;31826;53.572;10.170;2022-12-18T15:32:40;41.13;;;14.65;;
46090;SDS011;31826;53.572;10.170;2022-12-18T15:37:34;37.35;;;14.63;;
46090;SDS011;31826;53.572;10.170;2022-12-18T15:40:00;45.08;;;16.23;;
46090;SDS011;31826;53.572;10.170;2022-12-18T15:42:27;49.03;;;16.67;;
46090;SDS011;31826;53.572;10.170;2022-12-18T15:45:12;44.53;;;15.52;;
46090;SDS011;31826;53.572;10.170;2022-12-18T15:47:38;41.67;;;15.55;;
46090;SDS011;31826;53.572;10.170;2022-12-18T15:50:04;44.13;;;16.00;;
46090;SDS011;31826;53.572;10.170;2022-12-18T15:52:36;51.08;;;19.10;;
46090;SDS011;31826;53.572;10.170;2022-12-18T15:55:13;41.83;;;15.45;;
46090;SDS011;31826;53.572;10.170;2022-12-18T15:57:58;35.38;;;14.25;;
46090;SDS011;31826;53.572;10.170;2022-12-18T16:00:24;40.67;;;15.18;;
46090;SDS011;31826;53.572;10.170;2022-12-18T16:02:50;48.67;;;19.00;;
46090;SDS011;31826;53.572;10.170;2022-12-18T16:05:17;58.53;;;21.27;;
46090;SDS011;31826;53.572;10.170;2022-12-18T16:07:44;41.97;;;16.23;;
46090;SDS011;31826;53.572;10.170;2022-12-18T16:10:10;50.08;;;18.70;;
46090;SDS011;31826;53.572;10.170;2022-12-18T16:12:36;38.70;;;15.43;;
46090;SDS011;31826;53.572;10.170;2022-12-18T16:15:03;44.60;;;16.15;;
46090;SDS011;31826;53.572;10.170;2022-12-18T16:17:30;43.40;;;15.48;;
46090;SDS011;31826;53.572;10.170;2022-12-18T16:19:57;41.05;;;15.32;;
46090;SDS011;31826;53.572;10.170;2022-12-18T16:22:23;40.45;;;15.20;;
46090;SDS011;31826;53.572;10.170;2022-12-18T16:24:51;44.03;;;16.55;;
46090;SDS011;31826;53.572;10.170;2022-12-18T16:27:18;37.80;;;14.55;;
46090;SDS011;31826;53.572;10.170;2022-12-18T16:29:45;42.38;;;15.13;;
46090;SDS011;31826;53.572;10.170;2022-12-18T16:32:12;38.27;;;14.17;;
46090;SDS011;31826;53.572;10.170;2022-12-18T16:34:42;41.50;;;14.82;;
46090;SDS011;31826;53.572;10.170;2022-12-18T16:37:09;36.78;;;14.50;;
46090;SDS011;31826;53.572;10.170;2022-12-18T16:39:37;42.03;;;15.50;;
46090;SDS011;31826;53.572;10.170;2022-12-18T16:42:04;38.85;;;14.88;;
46090;SDS011;31826;53.572;10.170;2022-12-18T16:44:44;40.38;;;15.07;;
46090;SDS011;31826;53.572;10.170;2022-12-18T16:47:11;36.57;;;14.23;;
46090;SDS011;31826;53.572;10.170;2022-12-18T16:49:37;38.50;;;15.30;;
46090;SDS011;31826;53.572;10.170;2022-12-18T16:52:03;35.60;;;13.00;;
46090;SDS011;31826;53.572;10.170;2022-12-18T16:54:30;34.88;;;14.85;;
46090;SDS011;31826;53.572;10.170;2022-12-18T16:56:57;35.63;;;14.00;;
46090;SDS011;31826;53.572;10.170;2022-12-18T16:59:24;36.92;;;13.18;;
46090;SDS011;31826;53.572;10.170;2022-12-18T17:01:51;39.75;;;13.32;;
46090;SDS011;31826;53.572;10.170;2022-12-18T17:04:17;29.53;;;10.60;;
46090;SDS011;31826;53.572;10.170;2022-12-18T17:06:43;36.78;;;13.27;;
46090;SDS011;31826;53.572;10.170;2022-12-18T17:09:11;34.63;;;12.95;;
46090;SDS011;31826;53.572;10.170;2022-12-18T17:11:39;34.00;;;13.75;;
46090;SDS011;31826;53.572;10.170;2022-12-18T17:14:06;29.77;;;12.77;;
46090;SDS011;31826;53.572;10.170;2022-12-18T17:16:33;32.13;;;12.60;;
46090;SDS011;31826;53.572;10.170;2022-12-18T17:18:59;29.05;;;13.32;;
46090;SDS011;31826;53.572;10.170;2022-12-18T17:21:25;33.03;;;14.23;;
46090;SDS011;31826;53.572;10.170;2022-12-18T17:23:51;29.70;;;12.23;;
46090;SDS011;31826;53.572;10.170;2022-12-18T17:26:17;33.07;;;12.83;;